F\v Tenia — FPMH — position and weather

sailwx.info

Track history (hours):
 
Tides and Currents Weather Stations Pressure Air Temp Water Temp Dewpoint Dewpoint Depression Visibility Wind Speed Wind Dir Waves Ship Positions

F\v Tenia

Last reported at 2018-Jan-18 13:55 UTC. Time now 2018-Jan-18 14:09 UTC.
Position N 43°42' W 001°59'.

Length 22 m; draft 4 m.

Type: Fishing. MMSI: 227575000.

Date/timePositionNaut miles runAvg speedWind from/ knotsBaromVisibWave heightAir tempDewpointWater temp
2018-Jan-18 13:55N 43°42' W 001°59'3 8.3
2018-Jan-18 13:30N 43°45' W 001°60'4 8.2
2018-Jan-18 13:00N 43°49' W 002°00'4 8.2
2018-Jan-18 12:31N 43°53' W 002°00'5 8.1
2018-Jan-18 11:53N 43°59' W 002°01'3 8.1
2018-Jan-18 11:30N 44°02' W 002°01'  
2018-Jan-11 13:32N 46°01' W 001°32'1 8.8
2018-Jan-11 13:28N 46°01' W 001°31'4 8.6
2018-Jan-11 13:00N 46°04' W 001°27'4 8.2
2018-Jan-11 12:30N 46°06' W 001°22'4 8.3
2018-Jan-11 12:00N 46°07' W 001°16'2 4.8
2018-Jan-11 11:30N 46°09' W 001°13'0 0.0
2018-Jan-11 11:00N 46°09' W 001°13'0 0.0
2018-Jan-11 10:31N 46°09' W 001°13'0 0.0
2018-Jan-11 10:00N 46°09' W 001°13'0 0.0
2018-Jan-11 09:30N 46°09' W 001°13'0 0.0
2018-Jan-11 09:00N 46°09' W 001°13'0 0.0
2018-Jan-11 08:30N 46°09' W 001°13'0 0.0
2018-Jan-11 08:00N 46°09' W 001°13'0 0.0
2018-Jan-11 07:30N 46°09' W 001°13'0 0.0
2018-Jan-11 07:00N 46°09' W 001°13'3 6.8
2018-Jan-11 06:30N 46°07' W 001°17'4 9.0
2018-Jan-11 06:00N 46°06' W 001°23'4 8.7
2018-Jan-11 05:30N 46°03' W 001°29'4 8.9
2018-Jan-11 05:00N 45°60' W 001°33'  
Track history (hours):
 
Tides and Currents Weather Stations Pressure Air Temp Water Temp Dewpoint Dewpoint Depression Visibility Wind Speed Wind Dir Waves Ship Positions

F\v Tenia

Last reported at 2018-Jan-18 13:55 UTC. Time now 2018-Jan-18 14:09 UTC.
Position N 43°42' W 001°59'.

Length 22 m; draft 4 m.

Type: Fishing. MMSI: 227575000.

Date/timePositionNaut miles runAvg speedWind from/ knotsBaromVisibWave heightAir tempDewpointWater temp
2018-Jan-18 13:55N 43°42' W 001°59'3 8.3
2018-Jan-18 13:30N 43°45' W 001°60'4 8.2
2018-Jan-18 13:00N 43°49' W 002°00'4 8.2
2018-Jan-18 12:31N 43°53' W 002°00'5 8.1
2018-Jan-18 11:53N 43°59' W 002°01'3 8.1
2018-Jan-18 11:30N 44°02' W 002°01'  
2018-Jan-11 13:32N 46°01' W 001°32'1 8.8
2018-Jan-11 13:28N 46°01' W 001°31'4 8.6
2018-Jan-11 13:00N 46°04' W 001°27'4 8.2
2018-Jan-11 12:30N 46°06' W 001°22'4 8.3
2018-Jan-11 12:00N 46°07' W 001°16'2 4.8
2018-Jan-11 11:30N 46°09' W 001°13'0 0.0
2018-Jan-11 11:00N 46°09' W 001°13'0 0.0
2018-Jan-11 10:31N 46°09' W 001°13'0 0.0
2018-Jan-11 10:00N 46°09' W 001°13'0 0.0
2018-Jan-11 09:30N 46°09' W 001°13'0 0.0
2018-Jan-11 09:00N 46°09' W 001°13'0 0.0
2018-Jan-11 08:30N 46°09' W 001°13'0 0.0
2018-Jan-11 08:00N 46°09' W 001°13'0 0.0
2018-Jan-11 07:30N 46°09' W 001°13'0 0.0
2018-Jan-11 07:00N 46°09' W 001°13'3 6.8
2018-Jan-11 06:30N 46°07' W 001°17'4 9.0
2018-Jan-11 06:00N 46°06' W 001°23'4 8.7
2018-Jan-11 05:30N 46°03' W 001°29'4 8.9
2018-Jan-11 05:00N 45°60' W 001°33'  

Dump ship's entire track history